Latest Coastal Weather Observations for Rundle Island

IDQ60701

Issued at 9:02 am EST Tuesday 16 April 2024 (issued every 10 minutes, with the page automatically refreshed every 10 minutes)

About coastal observations | Map of coastal stations | Coastal observations for QLD | Marine services | Other Formats
Station Details ID: 039322 Name: RUNDLE ISLAND Lat: -23.53 Lon: 151.28 Height: 19.8 m
Data from the previous 72 hours. | See also: Recent months at Rundle Island
Date/Time
EST
Wind Sea
Height
m
Swell Vis
km
Cloud Weather Temp
°C
Press
MSL
hPa
Rain since
9am
mm
Dir  Spd
kts
Gust
kts
Height
m
Period
s
Dir
16/09:00am SSE 16 17 - - - - - - - 23.6 1021.4 -
16/08:30am SSE 15 17 - - - - - - - 23.5 1021.5 -
16/08:00am SSE 15 17 - - - - - - - 23.4 1021.2 -
16/07:30am SSE 14 16 - - - - - - - 23.1 1021.1 -
16/07:00am SSE 14 16 - - - - - - - 23.1 1020.9 -
16/06:30am SSE 15 17 - - - - - - - 22.9 1020.9 -
16/06:00am SSE 14 16 - - - - - - - 23.1 1020.6 -
16/05:30am S 12 14 - - - - - - - 23.1 1020.5 -
16/05:00am SSE 12 15 - - - - - - - 23.4 1020.3 -
16/04:30am SSE 12 15 - - - - - - - 23.5 1019.9 -
16/04:00am ESE 13 16 - - - - - - - 24.2 1020.0 -
16/03:30am ESE 14 17 - - - - - - - 24.6 1019.8 -
16/03:00am ESE 16 17 - - - - - - - 24.8 1019.9 -
16/02:30am ESE 15 17 - - - - - - - 24.8 1019.9 -
16/02:00am ESE 15 18 - - - - - - - 24.9 1020.1 -
16/01:30am SE 16 19 - - - - - - - 24.9 1020.2 -
16/01:00am SE 17 19 - - - - - - - 24.7 1020.3 -
16/12:30am SE 15 19 - - - - - - - 24.9 1020.6 -
16/12:00am ESE 17 18 - - - - - - - 24.9 1020.9 -
 
Date/Time
EST
Wind Sea
Height
m
Swell Vis
km
Cloud Weather Temp
°C
Press
MSL
hPa
Rain since
9am
mm
Dir  Spd
kts
Gust
kts
Height
m
Period
s
Dir
15/11:30pm ESE 17 19 - - - - - - - 25.1 1021.0 -
15/11:00pm ESE 17 20 - - - - - - - 25.1 1021.1 -
15/10:30pm SE 17 19 - - - - - - - 25.1 1021.4 -
15/10:00pm ESE 17 19 - - - - - - - 25.1 1021.6 -
15/09:30pm ESE 18 20 - - - - - - - 25.2 1021.8 -
15/09:00pm ESE 19 21 - - - - - - - 25.2 1021.9 -
15/08:30pm ESE 19 22 - - - - - - - 25.4 1021.7 -
15/08:00pm E 17 19 - - - - - - - 24.9 1021.6 -
15/07:30pm E 16 18 - - - - - - - 24.0 1021.6 -
15/07:00pm ESE 21 23 - - - - - - - 24.4 1021.1 -
15/06:30pm ESE 17 20 - - - - - - - 25.2 1020.7 -
15/06:00pm E 18 21 - - - - - - - 25.1 1020.4 -
15/05:30pm E 19 21 - - - - - - - 25.1 1020.1 -
15/05:13pm E 19 23 - - - - - - - 24.8 1019.8 -
15/05:00pm SE 15 18 - - - - - - - 25.3 1019.8 -
15/04:30pm SE 15 18 - - - - - - - 23.9 1019.8 -
15/04:00pm SE 15 20 - - - - - - - 24.4 1019.7 -
15/03:30pm ESE 15 18 - - - - - - - 25.2 1019.5 -
15/03:00pm SE 15 17 - - - - - - - 23.6 1019.5 -
15/02:30pm SE 17 19 - - - - - - - 24.5 1019.6 -
15/02:00pm SE 14 16 - - - - - - - 25.5 1019.7 -
15/01:30pm ESE 14 16 - - - - - - - 25.6 1019.8 -
15/01:00pm SE 14 16 - - - - - - - 24.9 1020.0 -
15/12:30pm SE 13 15 - - - - - - - 25.2 1020.2 -
15/12:00pm SE 14 16 - - - - - - - 24.5 1020.5 -
15/11:30am SE 14 16 - - - - - - - 24.3 1020.9 -
15/11:00am SE 15 17 - - - - - - - 24.2 1021.3 -
15/10:30am SE 15 18 - - - - - - - 23.8 1021.5 -
15/10:00am SSE 15 17 - - - - - - - 23.3 1021.6 -
15/09:30am SSE 16 19 - - - - - - - 22.8 1021.6 -
15/09:00am SE 16 19 - - - - - - - 23.0 1021.6 -
15/08:30am ESE 14 16 - - - - - - - 23.8 1021.4 -
15/08:00am SE 17 19 - - - - - - - 23.3 1021.0 -
15/07:30am SSE 18 22 - - - - - - - 23.3 1020.3 -
15/07:00am SSE 16 18 - - - - - - - 23.5 1020.5 -
15/06:30am S 18 21 - - - - - - - 23.3 1020.0 -
15/06:00am S 16 19 - - - - - - - 23.1 1019.9 -
15/05:30am S 15 18 - - - - - - - 23.4 1019.9 -
15/05:00am S 15 18 - - - - - - - 23.4 1019.6 -
15/04:30am SSE 13 15 - - - - - - - 23.4 1019.6 -
15/04:00am ESE 13 16 - - - - - - - 24.8 1019.5 -
15/03:30am ESE 15 16 - - - - - - - 24.8 1019.6 -
15/03:00am ESE 14 17 - - - - - - - 24.8 1019.9 -
15/02:30am ESE 15 17 - - - - - - - 24.9 1020.2 -
15/02:00am ESE 16 17 - - - - - - - 24.8 1020.2 -
15/01:30am ESE 14 18 - - - - - - - 24.9 1020.5 -
15/01:00am ESE 16 19 - - - - - - - 24.9 1020.9 -
15/12:30am ESE 17 20 - - - - - - - 25.0 1021.1 -
15/12:00am ESE 16 18 - - - - - - - 25.1 1021.3 -
 
Date/Time
EST
Wind Sea
Height
m
Swell Vis
km
Cloud Weather Temp
°C
Press
MSL
hPa
Rain since
9am
mm
Dir  Spd
kts
Gust
kts
Height
m
Period
s
Dir
14/11:30pm ESE 17 19 - - - - - - - 25.1 1021.4 -
14/11:00pm ESE 16 18 - - - - - - - 25.2 1021.5 -
14/10:30pm ESE 17 21 - - - - - - - 25.2 1021.5 -
14/10:00pm ESE 17 19 - - - - - - - 25.2 1021.7 -
14/09:30pm ESE 17 20 - - - - - - - 25.2 1021.9 -
14/09:00pm ESE 18 20 - - - - - - - 25.2 1021.9 -
14/08:30pm ESE 18 20 - - - - - - - 25.1 1021.6 -
14/08:00pm ESE 17 21 - - - - - - - 25.0 1021.3 -
14/07:30pm ESE 17 20 - - - - - - - 25.0 1021.0 -
14/07:00pm ESE 18 20 - - - - - - - 24.9 1020.4 -
14/06:30pm ESE 18 20 - - - - - - - 24.8 1020.2 -
14/06:00pm ESE 18 20 - - - - - - - 24.8 1019.9 -
14/05:30pm ESE 18 21 - - - - - - - 24.7 1019.9 -
14/05:00pm SE 17 20 - - - - - - - 24.8 1019.6 -
14/04:30pm ESE 17 20 - - - - - - - 24.6 1019.5 -
14/04:00pm ESE 17 19 - - - - - - - 24.6 1019.2 -
14/03:30pm SE 16 19 - - - - - - - 24.5 1019.2 -
14/03:00pm SE 16 21 - - - - - - - 24.7 1019.1 -
14/02:30pm SE 16 18 - - - - - - - 24.6 1019.2 -
14/02:00pm SE 16 19 - - - - - - - 24.6 1019.2 -
14/01:30pm SE 16 19 - - - - - - - 24.7 1019.5 -
14/01:00pm SE 17 19 - - - - - - - 24.5 1019.7 -
14/12:30pm SE 18 20 - - - - - - - 24.6 1020.0 -
14/12:00pm SE 18 21 - - - - - - - 24.6 1020.4 -
14/11:30am SE 17 19 - - - - - - - 24.6 1020.7 -
14/11:00am SE 18 21 - - - - - - - 24.5 1021.0 -
14/10:30am SSE 18 21 - - - - - - - 24.2 1021.1 -
14/10:00am SE 18 20 - - - - - - - 23.8 1021.0 -
14/09:30am SSE 17 19 - - - - - - - 23.6 1021.3 -
14/09:00am SSE 17 20 - - - - - - - 23.2 1021.1 -
14/08:30am SSE 17 19 - - - - - - - 23.3 1020.9 -
14/08:00am SSE 17 19 - - - - - - - 23.1 1020.6 -
14/07:30am SSE 16 19 - - - - - - - 23.2 1020.3 -
14/07:00am SSE 16 19 - - - - - - - 23.6 1019.9 -
14/06:30am SSE 16 18 - - - - - - - 23.6 1019.7 -
14/06:00am SE 15 17 - - - - - - - 23.8 1019.4 -
14/05:30am SSE 16 18 - - - - - - - 23.5 1018.9 -
14/05:00am SSE 16 19 - - - - - - - 23.2 1018.8 -
14/04:30am S 14 18 - - - - - - - 22.8 1019.0 -
14/04:00am S 15 17 - - - - - - - 23.1 1018.8 -
14/03:30am SSE 13 16 - - - - - - - 23.9 1018.8 -
14/03:00am S 12 14 - - - - - - - 23.6 1018.8 -
14/02:30am SE 11 14 - - - - - - - 24.0 1018.9 -
14/02:00am ESE 12 14 - - - - - - - 24.9 1019.0 -
14/01:30am ESE 13 16 - - - - - - - 25.0 1019.0 -
14/01:00am ESE 13 16 - - - - - - - 25.0 1019.4 -
14/12:30am ESE 14 16 - - - - - - - 24.9 1019.6 -
14/12:00am E 14 16 - - - - - - - 25.2 1019.9 -
 
Date/Time
EST
Wind Sea
Height
m
Swell Vis
km
Cloud Weather Temp
°C
Press
MSL
hPa
Rain since
9am
mm
Dir  Spd
kts
Gust
kts
Height
m
Period
s
Dir
13/11:30pm ESE 15 17 - - - - - - - 25.1 1020.2 -
13/11:00pm ESE 14 16 - - - - - - - 25.1 1020.2 -
13/10:30pm ESE 15 18 - - - - - - - 25.1 1020.2 -
13/10:00pm ESE 14 17 - - - - - - - 25.1 1020.1 -
13/09:30pm ESE 15 17 - - - - - - - 25.1 1020.2 -
13/09:00pm ESE 17 19 - - - - - - - 25.1 1020.1 -
13/08:30pm ESE 17 20 - - - - - - - 25.1 1020.0 -
13/08:00pm ESE 16 19 - - - - - - - 25.2 1019.8 -
13/07:30pm ESE 17 19 - - - - - - - 25.1 1019.6 -
13/07:00pm ESE 15 17 - - - - - - - 25.0 1019.3 -
13/06:30pm ESE 16 19 - - - - - - - 24.9 1019.0 -
13/06:00pm ESE 16 18 - - - - - - - 24.9 1018.6 -
13/05:30pm ESE 16 18 - - - - - - - 24.8 1018.5 -
13/05:00pm ESE 15 18 - - - - - - - 24.9 1018.0 -
13/04:30pm ESE 16 18 - - - - - - - 24.9 1017.7 -
13/04:00pm ESE 15 17 - - - - - - - 24.6 1017.6 -
13/03:30pm ESE 16 19 - - - - - - - 24.6 1017.4 -
13/03:00pm ESE 18 20 - - - - - - - 24.5 1017.3 -
13/02:30pm ESE 17 20 - - - - - - - 24.6 1017.2 -
13/02:00pm ESE 16 20 - - - - - - - 24.9 1017.7 -
13/01:30pm SE 15 17 - - - - - - - 24.8 1018.2 -
13/01:00pm SE 16 18 - - - - - - - 24.5 1018.2 -
13/12:30pm SE 17 20 - - - - - - - 24.4 1018.2 -
13/12:00pm SE 16 18 - - - - - - - 24.4 1018.7 -
13/11:30am SE 16 19 - - - - - - - 24.4 1019.1 -
13/11:00am SE 17 19 - - - - - - - 24.4 1019.3 -
13/10:30am SE 17 18 - - - - - - - 24.3 1019.6 -
13/10:00am SE 16 18 - - - - - - - 23.9 1019.6 -
13/09:30am SE 16 19 - - - - - - - 23.8 1019.5 -

Other formats

Comma delimited format used in spreadsheet applications
http://www.bom.gov.au/fwo/IDQ60701/IDQ60701.94378.axf

JavaScript Object Notation format (JSON) in row-major order
http://www.bom.gov.au/fwo/IDQ60701/IDQ60701.94378.json

Data quality

Most of these data are generated automatically and are frequently updated. Quality checks on data are not normally performed. It is possible for incorrect values to appear. Refer to information at About Latest Weather Observations and please check the disclaimer before using these data.